sensor_id;sensor_type;location;lat;lon;timestamp;P1;durP1;ratioP1;P2;durP2;ratioP2
70929;SDS011;58588;48.102;19.682;2023-01-31T00:00:07;10.88;;;3.80;;
70929;SDS011;58588;48.102;19.682;2023-01-31T00:03:11;11.75;;;3.65;;
70929;SDS011;58588;48.102;19.682;2023-01-31T00:06:15;11.43;;;3.90;;
70929;SDS011;58588;48.102;19.682;2023-01-31T00:09:18;8.30;;;2.95;;
70929;SDS011;58588;48.102;19.682;2023-01-31T00:12:21;11.48;;;2.78;;
70929;SDS011;58588;48.102;19.682;2023-01-31T00:15:23;10.02;;;3.72;;
70929;SDS011;58588;48.102;19.682;2023-01-31T00:18:26;9.95;;;3.22;;
70929;SDS011;58588;48.102;19.682;2023-01-31T00:21:30;13.00;;;3.83;;
70929;SDS011;58588;48.102;19.682;2023-01-31T00:24:32;9.75;;;3.35;;
70929;SDS011;58588;48.102;19.682;2023-01-31T00:27:34;8.20;;;2.83;;
70929;SDS011;58588;48.102;19.682;2023-01-31T00:30:36;11.75;;;3.63;;
70929;SDS011;58588;48.102;19.682;2023-01-31T00:33:40;10.05;;;3.10;;
70929;SDS011;58588;48.102;19.682;2023-01-31T00:36:43;9.60;;;3.40;;
70929;SDS011;58588;48.102;19.682;2023-01-31T00:39:45;12.45;;;3.38;;
70929;SDS011;58588;48.102;19.682;2023-01-31T00:42:47;8.90;;;3.15;;
70929;SDS011;58588;48.102;19.682;2023-01-31T00:45:49;9.45;;;2.90;;
70929;SDS011;58588;48.102;19.682;2023-01-31T00:48:53;10.02;;;3.38;;
70929;SDS011;58588;48.102;19.682;2023-01-31T00:51:56;10.17;;;3.27;;
70929;SDS011;58588;48.102;19.682;2023-01-31T00:54:58;11.18;;;3.28;;
70929;SDS011;58588;48.102;19.682;2023-01-31T00:58:00;11.82;;;3.60;;
70929;SDS011;58588;48.102;19.682;2023-01-31T01:01:05;9.05;;;3.00;;
70929;SDS011;58588;48.102;19.682;2023-01-31T01:04:10;8.68;;;2.92;;
70929;SDS011;58588;48.102;19.682;2023-01-31T01:07:12;10.33;;;3.17;;
70929;SDS011;58588;48.102;19.682;2023-01-31T01:10:14;7.72;;;2.55;;
70929;SDS011;58588;48.102;19.682;2023-01-31T01:13:16;7.45;;;2.40;;
70929;SDS011;58588;48.102;19.682;2023-01-31T01:16:19;9.07;;;2.90;;
70929;SDS011;58588;48.102;19.682;2023-01-31T01:19:24;9.18;;;2.80;;
70929;SDS011;58588;48.102;19.682;2023-01-31T01:22:26;7.70;;;2.50;;
70929;SDS011;58588;48.102;19.682;2023-01-31T01:25:28;8.50;;;2.47;;
70929;SDS011;58588;48.102;19.682;2023-01-31T01:28:31;7.57;;;2.58;;
70929;SDS011;58588;48.102;19.682;2023-01-31T01:31:35;7.93;;;2.17;;
70929;SDS011;58588;48.102;19.682;2023-01-31T01:34:39;8.68;;;2.80;;
70929;SDS011;58588;48.102;19.682;2023-01-31T01:37:41;8.27;;;2.23;;
70929;SDS011;58588;48.102;19.682;2023-01-31T01:40:43;7.00;;;2.22;;
70929;SDS011;58588;48.102;19.682;2023-01-31T01:43:47;6.13;;;1.80;;
70929;SDS011;58588;48.102;19.682;2023-01-31T01:46:50;6.72;;;1.80;;
70929;SDS011;58588;48.102;19.682;2023-01-31T01:49:55;6.88;;;1.75;;
70929;SDS011;58588;48.102;19.682;2023-01-31T01:53:01;8.73;;;1.90;;
70929;SDS011;58588;48.102;19.682;2023-01-31T01:56:07;7.03;;;2.13;;
70929;SDS011;58588;48.102;19.682;2023-01-31T01:59:14;6.88;;;2.00;;
70929;SDS011;58588;48.102;19.682;2023-01-31T02:02:20;7.45;;;2.45;;
70929;SDS011;58588;48.102;19.682;2023-01-31T02:05:25;8.38;;;2.28;;
70929;SDS011;58588;48.102;19.682;2023-01-31T02:08:32;8.10;;;2.43;;
70929;SDS011;58588;48.102;19.682;2023-01-31T02:11:36;9.00;;;3.35;;
70929;SDS011;58588;48.102;19.682;2023-01-31T02:14:38;11.85;;;3.38;;
70929;SDS011;58588;48.102;19.682;2023-01-31T02:17:42;8.27;;;2.92;;
70929;SDS011;58588;48.102;19.682;2023-01-31T02:21:01;8.55;;;3.10;;
70929;SDS011;58588;48.102;19.682;2023-01-31T02:24:32;9.50;;;2.27;;
70929;SDS011;58588;48.102;19.682;2023-01-31T02:35:33;8.10;;;2.50;;
70929;SDS011;58588;48.102;19.682;2023-01-31T02:38:51;6.65;;;2.28;;
70929;SDS011;58588;48.102;19.682;2023-01-31T02:42:04;9.57;;;2.63;;
70929;SDS011;58588;48.102;19.682;2023-01-31T02:45:15;9.88;;;2.60;;
70929;SDS011;58588;48.102;19.682;2023-01-31T02:48:32;9.23;;;2.53;;
70929;SDS011;58588;48.102;19.682;2023-01-31T02:51:43;12.05;;;5.00;;
70929;SDS011;58588;48.102;19.682;2023-01-31T02:55:11;11.10;;;3.67;;
70929;SDS011;58588;48.102;19.682;2023-01-31T02:58:35;17.80;;;5.87;;
70929;SDS011;58588;48.102;19.682;2023-01-31T03:01:40;22.58;;;8.38;;
70929;SDS011;58588;48.102;19.682;2023-01-31T03:04:46;14.38;;;5.30;;
70929;SDS011;58588;48.102;19.682;2023-01-31T03:07:49;16.08;;;6.50;;
70929;SDS011;58588;48.102;19.682;2023-01-31T03:10:57;19.05;;;8.25;;
70929;SDS011;58588;48.102;19.682;2023-01-31T03:14:06;10.33;;;3.87;;
70929;SDS011;58588;48.102;19.682;2023-01-31T03:17:18;28.30;;;12.07;;
70929;SDS011;58588;48.102;19.682;2023-01-31T03:20:34;17.27;;;6.07;;
70929;SDS011;58588;48.102;19.682;2023-01-31T03:23:44;8.38;;;3.00;;
70929;SDS011;58588;48.102;19.682;2023-01-31T03:26:51;7.80;;;2.75;;
70929;SDS011;58588;48.102;19.682;2023-01-31T03:29:55;18.43;;;6.00;;
70929;SDS011;58588;48.102;19.682;2023-01-31T03:33:05;10.75;;;3.50;;
70929;SDS011;58588;48.102;19.682;2023-01-31T03:36:16;10.68;;;3.47;;
70929;SDS011;58588;48.102;19.682;2023-01-31T03:39:29;11.02;;;3.30;;
70929;SDS011;58588;48.102;19.682;2023-01-31T03:42:39;10.77;;;3.30;;
70929;SDS011;58588;48.102;19.682;2023-01-31T03:45:47;7.40;;;2.30;;
70929;SDS011;58588;48.102;19.682;2023-01-31T03:48:52;10.30;;;2.50;;
70929;SDS011;58588;48.102;19.682;2023-01-31T03:51:58;8.77;;;3.00;;
70929;SDS011;58588;48.102;19.682;2023-01-31T03:55:07;10.25;;;2.60;;
70929;SDS011;58588;48.102;19.682;2023-01-31T03:58:15;8.10;;;2.65;;
70929;SDS011;58588;48.102;19.682;2023-01-31T04:01:22;8.77;;;2.50;;
70929;SDS011;58588;48.102;19.682;2023-01-31T04:04:27;10.35;;;2.25;;
70929;SDS011;58588;48.102;19.682;2023-01-31T04:07:34;10.55;;;2.90;;
70929;SDS011;58588;48.102;19.682;2023-01-31T04:10:37;9.23;;;2.25;;
70929;SDS011;58588;48.102;19.682;2023-01-31T04:13:40;7.25;;;2.20;;
70929;SDS011;58588;48.102;19.682;2023-01-31T04:16:43;8.60;;;2.70;;
70929;SDS011;58588;48.102;19.682;2023-01-31T04:19:45;7.45;;;1.88;;
70929;SDS011;58588;48.102;19.682;2023-01-31T04:22:48;8.93;;;2.33;;
70929;SDS011;58588;48.102;19.682;2023-01-31T04:25:51;8.98;;;2.00;;
70929;SDS011;58588;48.102;19.682;2023-01-31T04:28:54;7.22;;;1.42;;
70929;SDS011;58588;48.102;19.682;2023-01-31T04:31:56;5.93;;;1.17;;
70929;SDS011;58588;48.102;19.682;2023-01-31T04:34:58;6.72;;;1.20;;
70929;SDS011;58588;48.102;19.682;2023-01-31T04:38:01;7.55;;;1.52;;
70929;SDS011;58588;48.102;19.682;2023-01-31T04:41:03;6.05;;;1.30;;
70929;SDS011;58588;48.102;19.682;2023-01-31T04:44:05;6.10;;;1.45;;
70929;SDS011;58588;48.102;19.682;2023-01-31T04:47:07;15.60;;;2.27;;
70929;SDS011;58588;48.102;19.682;2023-01-31T04:50:09;7.10;;;1.40;;
70929;SDS011;58588;48.102;19.682;2023-01-31T04:53:13;9.48;;;1.55;;
70929;SDS011;58588;48.102;19.682;2023-01-31T04:56:15;8.68;;;1.77;;
70929;SDS011;58588;48.102;19.682;2023-01-31T04:59:17;5.43;;;1.13;;
70929;SDS011;58588;48.102;19.682;2023-01-31T05:02:19;8.47;;;1.60;;
70929;SDS011;58588;48.102;19.682;2023-01-31T05:05:22;8.57;;;1.48;;
70929;SDS011;58588;48.102;19.682;2023-01-31T05:08:26;5.88;;;1.30;;
70929;SDS011;58588;48.102;19.682;2023-01-31T05:11:28;7.68;;;1.35;;
70929;SDS011;58588;48.102;19.682;2023-01-31T05:14:30;6.88;;;1.75;;
70929;SDS011;58588;48.102;19.682;2023-01-31T05:17:32;8.03;;;1.07;;
70929;SDS011;58588;48.102;19.682;2023-01-31T05:20:36;9.95;;;1.88;;
70929;SDS011;58588;48.102;19.682;2023-01-31T05:23:41;5.82;;;1.17;;
70929;SDS011;58588;48.102;19.682;2023-01-31T05:26:43;5.65;;;1.50;;
70929;SDS011;58588;48.102;19.682;2023-01-31T05:29:45;11.88;;;2.90;;
70929;SDS011;58588;48.102;19.682;2023-01-31T05:32:47;14.73;;;4.30;;
70929;SDS011;58588;48.102;19.682;2023-01-31T05:35:49;8.30;;;1.65;;
70929;SDS011;58588;48.102;19.682;2023-01-31T05:38:52;8.43;;;1.65;;
70929;SDS011;58588;48.102;19.682;2023-01-31T05:41:54;8.02;;;1.50;;
70929;SDS011;58588;48.102;19.682;2023-01-31T05:44:57;7.38;;;1.67;;
70929;SDS011;58588;48.102;19.682;2023-01-31T05:47:59;5.87;;;1.53;;
70929;SDS011;58588;48.102;19.682;2023-01-31T05:51:01;7.97;;;1.63;;
70929;SDS011;58588;48.102;19.682;2023-01-31T05:54:05;7.80;;;1.58;;
70929;SDS011;58588;48.102;19.682;2023-01-31T05:57:07;9.18;;;1.33;;
70929;SDS011;58588;48.102;19.682;2023-01-31T06:00:09;9.50;;;3.10;;
70929;SDS011;58588;48.102;19.682;2023-01-31T06:03:12;5.87;;;1.30;;
70929;SDS011;58588;48.102;19.682;2023-01-31T06:06:14;10.43;;;2.28;;
70929;SDS011;58588;48.102;19.682;2023-01-31T06:09:18;14.38;;;4.43;;
70929;SDS011;58588;48.102;19.682;2023-01-31T06:12:20;19.17;;;6.30;;
70929;SDS011;58588;48.102;19.682;2023-01-31T06:15:22;17.42;;;5.45;;
70929;SDS011;58588;48.102;19.682;2023-01-31T06:18:24;54.67;;;19.33;;
70929;SDS011;58588;48.102;19.682;2023-01-31T06:21:26;37.17;;;14.80;;
70929;SDS011;58588;48.102;19.682;2023-01-31T06:24:30;62.97;;;19.60;;
70929;SDS011;58588;48.102;19.682;2023-01-31T06:27:32;72.60;;;17.73;;
70929;SDS011;58588;48.102;19.682;2023-01-31T06:30:34;85.60;;;25.52;;
70929;SDS011;58588;48.102;19.682;2023-01-31T06:33:36;143.10;;;34.10;;
70929;SDS011;58588;48.102;19.682;2023-01-31T06:36:38;298.95;;;59.08;;
70929;SDS011;58588;48.102;19.682;2023-01-31T06:39:42;385.63;;;86.95;;
70929;SDS011;58588;48.102;19.682;2023-01-31T06:42:44;52.72;;;13.57;;
70929;SDS011;58588;48.102;19.682;2023-01-31T06:45:46;149.00;;;35.95;;
70929;SDS011;58588;48.102;19.682;2023-01-31T06:48:49;101.47;;;28.93;;
70929;SDS011;58588;48.102;19.682;2023-01-31T06:51:51;74.03;;;22.17;;
70929;SDS011;58588;48.102;19.682;2023-01-31T06:54:54;241.40;;;64.82;;
70929;SDS011;58588;48.102;19.682;2023-01-31T06:57:56;119.68;;;36.58;;
70929;SDS011;58588;48.102;19.682;2023-01-31T07:01:02;30.55;;;10.50;;
70929;SDS011;58588;48.102;19.682;2023-01-31T07:04:05;17.10;;;4.60;;
70929;SDS011;58588;48.102;19.682;2023-01-31T07:07:07;33.63;;;9.98;;
70929;SDS011;58588;48.102;19.682;2023-01-31T07:10:11;7.47;;;2.33;;
70929;SDS011;58588;48.102;19.682;2023-01-31T07:13:13;7.90;;;1.95;;
70929;SDS011;58588;48.102;19.682;2023-01-31T07:16:16;7.00;;;1.48;;
70929;SDS011;58588;48.102;19.682;2023-01-31T07:19:18;7.50;;;1.70;;
70929;SDS011;58588;48.102;19.682;2023-01-31T07:22:20;8.52;;;1.48;;
70929;SDS011;58588;48.102;19.682;2023-01-31T07:25:24;7.07;;;1.75;;
70929;SDS011;58588;48.102;19.682;2023-01-31T07:28:26;14.73;;;3.90;;
70929;SDS011;58588;48.102;19.682;2023-01-31T07:31:28;10.68;;;3.33;;
70929;SDS011;58588;48.102;19.682;2023-01-31T07:34:30;24.53;;;7.03;;
70929;SDS011;58588;48.102;19.682;2023-01-31T07:37:32;8.43;;;2.50;;
70929;SDS011;58588;48.102;19.682;2023-01-31T07:40:36;8.82;;;2.38;;
70929;SDS011;58588;48.102;19.682;2023-01-31T07:43:39;10.77;;;2.70;;
70929;SDS011;58588;48.102;19.682;2023-01-31T07:46:41;7.38;;;1.90;;
70929;SDS011;58588;48.102;19.682;2023-01-31T07:49:43;11.47;;;3.63;;
70929;SDS011;58588;48.102;19.682;2023-01-31T07:52:45;9.00;;;1.92;;
70929;SDS011;58588;48.102;19.682;2023-01-31T07:55:49;7.70;;;1.42;;
70929;SDS011;58588;48.102;19.682;2023-01-31T07:58:51;6.65;;;1.45;;
70929;SDS011;58588;48.102;19.682;2023-01-31T08:01:53;11.52;;;2.70;;
70929;SDS011;58588;48.102;19.682;2023-01-31T08:05:13;7.60;;;2.20;;
70929;SDS011;58588;48.102;19.682;2023-01-31T08:08:15;9.15;;;2.40;;
70929;SDS011;58588;48.102;19.682;2023-01-31T08:11:18;6.85;;;2.15;;
70929;SDS011;58588;48.102;19.682;2023-01-31T08:14:20;7.45;;;1.40;;
70929;SDS011;58588;48.102;19.682;2023-01-31T08:17:24;5.63;;;1.70;;
70929;SDS011;58588;48.102;19.682;2023-01-31T08:20:26;7.37;;;1.67;;
70929;SDS011;58588;48.102;19.682;2023-01-31T08:23:28;6.55;;;1.10;;
70929;SDS011;58588;48.102;19.682;2023-01-31T08:26:32;6.78;;;1.15;;
70929;SDS011;58588;48.102;19.682;2023-01-31T08:29:34;6.20;;;0.88;;
70929;SDS011;58588;48.102;19.682;2023-01-31T08:32:36;9.68;;;1.35;;
70929;SDS011;58588;48.102;19.682;2023-01-31T08:35:38;7.17;;;1.20;;
70929;SDS011;58588;48.102;19.682;2023-01-31T08:38:40;6.60;;;1.20;;
70929;SDS011;58588;48.102;19.682;2023-01-31T08:41:45;6.20;;;1.00;;
70929;SDS011;58588;48.102;19.682;2023-01-31T08:44:48;7.90;;;2.75;;
70929;SDS011;58588;48.102;19.682;2023-01-31T08:47:53;7.82;;;2.38;;
70929;SDS011;58588;48.102;19.682;2023-01-31T08:50:56;8.73;;;1.60;;
70929;SDS011;58588;48.102;19.682;2023-01-31T08:54:01;6.53;;;1.55;;
70929;SDS011;58588;48.102;19.682;2023-01-31T08:57:04;9.18;;;2.50;;
70929;SDS011;58588;48.102;19.682;2023-01-31T09:00:07;11.38;;;4.65;;
70929;SDS011;58588;48.102;19.682;2023-01-31T09:03:14;8.38;;;2.95;;
70929;SDS011;58588;48.102;19.682;2023-01-31T09:06:17;6.83;;;1.97;;
70929;SDS011;58588;48.102;19.682;2023-01-31T09:09:21;7.93;;;1.90;;
70929;SDS011;58588;48.102;19.682;2023-01-31T09:12:26;7.78;;;1.30;;
70929;SDS011;58588;48.102;19.682;2023-01-31T09:15:28;7.68;;;2.15;;
70929;SDS011;58588;48.102;19.682;2023-01-31T09:18:31;5.15;;;0.98;;
70929;SDS011;58588;48.102;19.682;2023-01-31T09:21:34;8.90;;;1.30;;
70929;SDS011;58588;48.102;19.682;2023-01-31T09:24:36;8.18;;;1.48;;
70929;SDS011;58588;48.102;19.682;2023-01-31T09:27:39;5.57;;;1.02;;
70929;SDS011;58588;48.102;19.682;2023-01-31T09:30:41;11.65;;;4.03;;
70929;SDS011;58588;48.102;19.682;2023-01-31T09:33:43;11.55;;;3.47;;
70929;SDS011;58588;48.102;19.682;2023-01-31T09:36:45;7.30;;;2.33;;
70929;SDS011;58588;48.102;19.682;2023-01-31T09:39:48;5.72;;;1.30;;
70929;SDS011;58588;48.102;19.682;2023-01-31T09:42:51;6.97;;;1.20;;
70929;SDS011;58588;48.102;19.682;2023-01-31T09:45:57;9.13;;;1.80;;
70929;SDS011;58588;48.102;19.682;2023-01-31T09:49:02;8.90;;;1.70;;
70929;SDS011;58588;48.102;19.682;2023-01-31T09:52:08;8.90;;;2.00;;
70929;SDS011;58588;48.102;19.682;2023-01-31T09:55:14;5.38;;;1.05;;
70929;SDS011;58588;48.102;19.682;2023-01-31T09:58:20;8.45;;;1.50;;
70929;SDS011;58588;48.102;19.682;2023-01-31T10:01:31;9.63;;;2.28;;
70929;SDS011;58588;48.102;19.682;2023-01-31T10:04:47;6.38;;;1.70;;
70929;SDS011;58588;48.102;19.682;2023-01-31T10:08:04;3.80;;;0.70;;
70929;SDS011;58588;48.102;19.682;2023-01-31T10:11:15;5.03;;;0.95;;
70929;SDS011;58588;48.102;19.682;2023-01-31T10:14:27;5.47;;;1.10;;
70929;SDS011;58588;48.102;19.682;2023-01-31T10:17:35;3.65;;;0.68;;
70929;SDS011;58588;48.102;19.682;2023-01-31T10:20:42;6.00;;;1.60;;
70929;SDS011;58588;48.102;19.682;2023-01-31T10:23:49;10.83;;;2.87;;
70929;SDS011;58588;48.102;19.682;2023-01-31T10:26:57;5.90;;;1.20;;
70929;SDS011;58588;48.102;19.682;2023-01-31T10:30:06;8.52;;;1.23;;
70929;SDS011;58588;48.102;19.682;2023-01-31T10:33:18;8.40;;;2.28;;
70929;SDS011;58588;48.102;19.682;2023-01-31T10:36:26;9.25;;;2.70;;
70929;SDS011;58588;48.102;19.682;2023-01-31T10:39:31;13.03;;;3.90;;
70929;SDS011;58588;48.102;19.682;2023-01-31T10:42:38;8.10;;;2.33;;
70929;SDS011;58588;48.102;19.682;2023-01-31T10:45:43;5.95;;;1.40;;
70929;SDS011;58588;48.102;19.682;2023-01-31T10:48:45;6.93;;;1.70;;
70929;SDS011;58588;48.102;19.682;2023-01-31T10:51:55;10.18;;;1.90;;
70929;SDS011;58588;48.102;19.682;2023-01-31T10:55:14;11.93;;;1.67;;
70929;SDS011;58588;48.102;19.682;2023-01-31T10:58:32;7.75;;;1.30;;
70929;SDS011;58588;48.102;19.682;2023-01-31T11:01:37;7.25;;;1.42;;
70929;SDS011;58588;48.102;19.682;2023-01-31T11:04:40;6.88;;;1.20;;
70929;SDS011;58588;48.102;19.682;2023-01-31T11:07:43;8.18;;;1.98;;
70929;SDS011;58588;48.102;19.682;2023-01-31T11:10:49;8.17;;;1.80;;
70929;SDS011;58588;48.102;19.682;2023-01-31T11:13:56;5.70;;;1.40;;
70929;SDS011;58588;48.102;19.682;2023-01-31T11:17:01;5.45;;;1.58;;
70929;SDS011;58588;48.102;19.682;2023-01-31T11:20:14;7.15;;;1.50;;
70929;SDS011;58588;48.102;19.682;2023-01-31T11:23:22;4.82;;;0.75;;
70929;SDS011;58588;48.102;19.682;2023-01-31T11:26:27;6.83;;;1.10;;
70929;SDS011;58588;48.102;19.682;2023-01-31T11:29:32;6.72;;;1.40;;
70929;SDS011;58588;48.102;19.682;2023-01-31T11:32:38;6.63;;;1.85;;
70929;SDS011;58588;48.102;19.682;2023-01-31T11:35:43;8.95;;;1.90;;
70929;SDS011;58588;48.102;19.682;2023-01-31T11:38:52;6.07;;;1.00;;
70929;SDS011;58588;48.102;19.682;2023-01-31T11:41:55;6.87;;;1.40;;
70929;SDS011;58588;48.102;19.682;2023-01-31T11:44:58;15.15;;;4.65;;
70929;SDS011;58588;48.102;19.682;2023-01-31T11:48:06;11.18;;;3.95;;
70929;SDS011;58588;48.102;19.682;2023-01-31T11:51:19;13.25;;;4.55;;
70929;SDS011;58588;48.102;19.682;2023-01-31T11:54:28;13.73;;;3.40;;
70929;SDS011;58588;48.102;19.682;2023-01-31T11:57:34;4.83;;;1.10;;
70929;SDS011;58588;48.102;19.682;2023-01-31T12:00:38;7.45;;;1.80;;
70929;SDS011;58588;48.102;19.682;2023-01-31T12:03:54;5.85;;;1.00;;
70929;SDS011;58588;48.102;19.682;2023-01-31T12:07:00;7.93;;;1.25;;
70929;SDS011;58588;48.102;19.682;2023-01-31T12:10:04;5.45;;;0.80;;
70929;SDS011;58588;48.102;19.682;2023-01-31T12:13:26;4.67;;;0.87;;
70929;SDS011;58588;48.102;19.682;2023-01-31T12:16:29;5.60;;;0.90;;
70929;SDS011;58588;48.102;19.682;2023-01-31T12:19:36;8.02;;;1.52;;
70929;SDS011;58588;48.102;19.682;2023-01-31T12:22:49;9.52;;;2.92;;
70929;SDS011;58588;48.102;19.682;2023-01-31T12:26:03;6.95;;;1.52;;
70929;SDS011;58588;48.102;19.682;2023-01-31T12:29:17;10.10;;;2.30;;
70929;SDS011;58588;48.102;19.682;2023-01-31T12:36:11;13.45;;;2.78;;
70929;SDS011;58588;48.102;19.682;2023-01-31T12:39:30;12.00;;;3.35;;
70929;SDS011;58588;48.102;19.682;2023-01-31T12:42:53;12.68;;;3.85;;
70929;SDS011;58588;48.102;19.682;2023-01-31T12:46:03;11.70;;;3.90;;
70929;SDS011;58588;48.102;19.682;2023-01-31T12:49:21;8.52;;;2.42;;
70929;SDS011;58588;48.102;19.682;2023-01-31T12:52:34;7.05;;;2.17;;
70929;SDS011;58588;48.102;19.682;2023-01-31T12:55:52;7.60;;;1.90;;
70929;SDS011;58588;48.102;19.682;2023-01-31T12:59:08;8.25;;;2.20;;
70929;SDS011;58588;48.102;19.682;2023-01-31T13:02:25;8.53;;;1.50;;
70929;SDS011;58588;48.102;19.682;2023-01-31T13:05:39;7.15;;;1.17;;
70929;SDS011;58588;48.102;19.682;2023-01-31T13:08:50;11.18;;;3.45;;
70929;SDS011;58588;48.102;19.682;2023-01-31T13:12:00;9.13;;;2.30;;
70929;SDS011;58588;48.102;19.682;2023-01-31T13:15:07;4.20;;;0.90;;
70929;SDS011;58588;48.102;19.682;2023-01-31T13:18:17;6.03;;;1.37;;
70929;SDS011;58588;48.102;19.682;2023-01-31T13:21:22;5.88;;;1.20;;
70929;SDS011;58588;48.102;19.682;2023-01-31T13:24:30;10.13;;;1.10;;
70929;SDS011;58588;48.102;19.682;2023-01-31T13:27:39;10.07;;;2.10;;
70929;SDS011;58588;48.102;19.682;2023-01-31T13:30:47;5.40;;;0.90;;
70929;SDS011;58588;48.102;19.682;2023-01-31T13:33:55;7.67;;;1.10;;
70929;SDS011;58588;48.102;19.682;2023-01-31T13:37:03;3.95;;;0.70;;
70929;SDS011;58588;48.102;19.682;2023-01-31T13:40:15;5.85;;;1.02;;
70929;SDS011;58588;48.102;19.682;2023-01-31T13:43:20;7.10;;;1.40;;
70929;SDS011;58588;48.102;19.682;2023-01-31T13:46:23;7.25;;;1.70;;
70929;SDS011;58588;48.102;19.682;2023-01-31T13:49:32;9.97;;;2.80;;
70929;SDS011;58588;48.102;19.682;2023-01-31T13:52:39;10.00;;;2.30;;
70929;SDS011;58588;48.102;19.682;2023-01-31T13:55:49;8.43;;;2.30;;
70929;SDS011;58588;48.102;19.682;2023-01-31T13:58:53;8.50;;;2.45;;
70929;SDS011;58588;48.102;19.682;2023-01-31T14:01:57;6.15;;;1.67;;
70929;SDS011;58588;48.102;19.682;2023-01-31T14:05:04;4.67;;;0.80;;
70929;SDS011;58588;48.102;19.682;2023-01-31T14:08:55;8.60;;;1.27;;
70929;SDS011;58588;48.102;19.682;2023-01-31T14:12:00;6.53;;;0.90;;
70929;SDS011;58588;48.102;19.682;2023-01-31T14:18:49;5.88;;;0.40;;
70929;SDS011;58588;48.102;19.682;2023-01-31T14:21:51;5.03;;;0.70;;
70929;SDS011;58588;48.102;19.682;2023-01-31T14:24:56;4.65;;;0.60;;
70929;SDS011;58588;48.102;19.682;2023-01-31T14:28:01;3.92;;;0.50;;
70929;SDS011;58588;48.102;19.682;2023-01-31T14:31:09;4.28;;;0.60;;
70929;SDS011;58588;48.102;19.682;2023-01-31T14:34:14;4.57;;;0.80;;
70929;SDS011;58588;48.102;19.682;2023-01-31T14:37:20;3.77;;;0.87;;
70929;SDS011;58588;48.102;19.682;2023-01-31T14:40:33;5.75;;;0.88;;
70929;SDS011;58588;48.102;19.682;2023-01-31T14:43:51;5.43;;;1.10;;
70929;SDS011;58588;48.102;19.682;2023-01-31T14:47:09;5.70;;;1.15;;
70929;SDS011;58588;48.102;19.682;2023-01-31T14:50:28;4.50;;;0.75;;
70929;SDS011;58588;48.102;19.682;2023-01-31T14:53:54;6.63;;;1.37;;
70929;SDS011;58588;48.102;19.682;2023-01-31T14:57:15;6.20;;;1.20;;
70929;SDS011;58588;48.102;19.682;2023-01-31T15:00:22;5.18;;;1.10;;
70929;SDS011;58588;48.102;19.682;2023-01-31T15:03:27;7.07;;;1.02;;
70929;SDS011;58588;48.102;19.682;2023-01-31T15:06:32;7.68;;;1.33;;
70929;SDS011;58588;48.102;19.682;2023-01-31T15:09:39;7.43;;;1.73;;
70929;SDS011;58588;48.102;19.682;2023-01-31T15:12:51;5.63;;;1.25;;
70929;SDS011;58588;48.102;19.682;2023-01-31T15:15:55;6.15;;;1.55;;
70929;SDS011;58588;48.102;19.682;2023-01-31T15:18:59;8.10;;;2.30;;
70929;SDS011;58588;48.102;19.682;2023-01-31T15:22:07;6.60;;;1.20;;
70929;SDS011;58588;48.102;19.682;2023-01-31T15:25:19;5.70;;;1.30;;
70929;SDS011;58588;48.102;19.682;2023-01-31T15:28:25;5.75;;;1.15;;
70929;SDS011;58588;48.102;19.682;2023-01-31T15:31:32;17.20;;;6.40;;
70929;SDS011;58588;48.102;19.682;2023-01-31T15:34:43;25.80;;;10.57;;
70929;SDS011;58588;48.102;19.682;2023-01-31T15:37:53;17.48;;;6.85;;
70929;SDS011;58588;48.102;19.682;2023-01-31T15:41:14;18.80;;;5.73;;
70929;SDS011;58588;48.102;19.682;2023-01-31T15:44:19;12.40;;;4.65;;
70929;SDS011;58588;48.102;19.682;2023-01-31T15:47:24;10.65;;;3.63;;
70929;SDS011;58588;48.102;19.682;2023-01-31T15:50:27;6.55;;;1.40;;
70929;SDS011;58588;48.102;19.682;2023-01-31T15:53:30;6.80;;;0.90;;
70929;SDS011;58588;48.102;19.682;2023-01-31T15:56:33;5.00;;;0.90;;
70929;SDS011;58588;48.102;19.682;2023-01-31T15:59:37;5.97;;;1.00;;
70929;SDS011;58588;48.102;19.682;2023-01-31T16:02:41;6.07;;;1.30;;
70929;SDS011;58588;48.102;19.682;2023-01-31T16:05:47;7.18;;;1.70;;
70929;SDS011;58588;48.102;19.682;2023-01-31T16:08:52;8.90;;;1.63;;
70929;SDS011;58588;48.102;19.682;2023-01-31T16:11:55;6.47;;;1.60;;
70929;SDS011;58588;48.102;19.682;2023-01-31T16:15:00;6.97;;;1.42;;
70929;SDS011;58588;48.102;19.682;2023-01-31T16:18:08;7.03;;;1.52;;
70929;SDS011;58588;48.102;19.682;2023-01-31T16:21:13;6.47;;;1.30;;
70929;SDS011;58588;48.102;19.682;2023-01-31T16:24:20;7.45;;;1.20;;
70929;SDS011;58588;48.102;19.682;2023-01-31T16:27:23;6.90;;;1.43;;
70929;SDS011;58588;48.102;19.682;2023-01-31T16:30:53;6.80;;;1.20;;
70929;SDS011;58588;48.102;19.682;2023-01-31T16:37:35;9.52;;;1.05;;
70929;SDS011;58588;48.102;19.682;2023-01-31T16:40:44;10.57;;;1.40;;
70929;SDS011;58588;48.102;19.682;2023-01-31T16:43:47;8.60;;;1.73;;
70929;SDS011;58588;48.102;19.682;2023-01-31T16:46:51;6.32;;;1.20;;
70929;SDS011;58588;48.102;19.682;2023-01-31T16:49:58;6.53;;;1.08;;
70929;SDS011;58588;48.102;19.682;2023-01-31T16:53:32;4.97;;;1.05;;
70929;SDS011;58588;48.102;19.682;2023-01-31T16:57:42;7.20;;;1.40;;
70929;SDS011;58588;48.102;19.682;2023-01-31T17:00:45;6.87;;;1.43;;
70929;SDS011;58588;48.102;19.682;2023-01-31T17:03:59;7.65;;;1.35;;
70929;SDS011;58588;48.102;19.682;2023-01-31T17:07:04;7.85;;;1.50;;
70929;SDS011;58588;48.102;19.682;2023-01-31T17:10:08;6.85;;;1.20;;
70929;SDS011;58588;48.102;19.682;2023-01-31T17:13:20;8.90;;;1.25;;
70929;SDS011;58588;48.102;19.682;2023-01-31T17:16:24;56.67;;;20.93;;
70929;SDS011;58588;48.102;19.682;2023-01-31T17:19:29;9.18;;;3.20;;
70929;SDS011;58588;48.102;19.682;2023-01-31T17:22:31;7.40;;;1.77;;
70929;SDS011;58588;48.102;19.682;2023-01-31T17:25:33;6.65;;;1.88;;
70929;SDS011;58588;48.102;19.682;2023-01-31T17:28:38;17.20;;;4.88;;
70929;SDS011;58588;48.102;19.682;2023-01-31T17:31:40;6.83;;;1.70;;
70929;SDS011;58588;48.102;19.682;2023-01-31T17:34:42;10.50;;;1.63;;
70929;SDS011;58588;48.102;19.682;2023-01-31T17:37:45;7.80;;;1.45;;
70929;SDS011;58588;48.102;19.682;2023-01-31T17:40:47;10.18;;;1.70;;
70929;SDS011;58588;48.102;19.682;2023-01-31T17:43:50;8.93;;;1.98;;
70929;SDS011;58588;48.102;19.682;2023-01-31T17:46:53;7.47;;;1.90;;
70929;SDS011;58588;48.102;19.682;2023-01-31T17:49:55;6.40;;;1.90;;
70929;SDS011;58588;48.102;19.682;2023-01-31T17:52:57;9.80;;;1.95;;
70929;SDS011;58588;48.102;19.682;2023-01-31T17:55:59;6.22;;;1.50;;
70929;SDS011;58588;48.102;19.682;2023-01-31T17:59:02;9.20;;;1.90;;
70929;SDS011;58588;48.102;19.682;2023-01-31T18:02:05;8.97;;;2.00;;
70929;SDS011;58588;48.102;19.682;2023-01-31T18:05:07;9.57;;;1.70;;
70929;SDS011;58588;48.102;19.682;2023-01-31T18:08:10;9.07;;;1.88;;
70929;SDS011;58588;48.102;19.682;2023-01-31T18:11:13;6.90;;;1.70;;
70929;SDS011;58588;48.102;19.682;2023-01-31T18:14:17;7.28;;;2.10;;
70929;SDS011;58588;48.102;19.682;2023-01-31T18:17:19;7.77;;;2.13;;
70929;SDS011;58588;48.102;19.682;2023-01-31T18:20:21;9.98;;;2.00;;
70929;SDS011;58588;48.102;19.682;2023-01-31T18:23:23;9.23;;;2.08;;
70929;SDS011;58588;48.102;19.682;2023-01-31T18:26:26;8.88;;;1.90;;
70929;SDS011;58588;48.102;19.682;2023-01-31T18:29:29;9.13;;;1.92;;
70929;SDS011;58588;48.102;19.682;2023-01-31T18:32:32;9.73;;;1.80;;
70929;SDS011;58588;48.102;19.682;2023-01-31T18:35:34;7.15;;;1.85;;
70929;SDS011;58588;48.102;19.682;2023-01-31T18:38:36;12.70;;;2.22;;